Time;durP1;ratioP1;P1;durP2;ratioP2;P2;SDS_P1;SDS_P2;PMS_P1;PMS_P2;Temp;Humidity;BMP_temperature;BMP_pressure;BME280_temperature;BME280_humidity;BME280_pressure;Samples;Min_cycle;Max_cycle;Signal;HPM_P1;HPM_P2
2022/01/09 00:01:25;;;;;;;2.35;1.42;;;;;;;;;;5053527;28;20049;-68
2022/01/09 00:03:54;;;;;;;3.03;1.88;;;;;;;;;;5049872;28;20100;-69
2022/01/09 00:06:24;;;;;;;4.30;1.70;;;;;;;;;;5057512;28;20130;-69
2022/01/09 00:08:52;;;;;;;3.47;1.60;;;;;;;;;;5060931;28;20416;-68
2022/01/09 00:11:26;;;;;;;3.72;2.00;;;;;;;;;;5055014;28;20088;-68
2022/01/09 00:13:54;;;;;;;2.28;1.48;;;;;;;;;;5054434;28;20091;-68
2022/01/09 00:16:23;;;;;;;5.20;2.22;;;;;;;;;;5062335;28;20118;-68
2022/01/09 00:18:52;;;;;;;4.18;1.90;;;;;;;;;;5040213;28;20045;-68
2022/01/09 00:21:21;;;;;;;4.57;1.75;;;;;;;;;;5048711;28;20091;-70
2022/01/09 00:23:50;;;;;;;2.85;1.85;;;;;;;;;;5048048;28;20073;-68
2022/01/09 00:26:19;;;;;;;3.60;2.00;;;;;;;;;;5057525;28;20048;-68
2022/01/09 00:28:47;;;;;;;3.05;1.70;;;;;;;;;;5051130;28;20482;-68
2022/01/09 00:31:15;;;;;;;4.82;1.73;;;;;;;;;;5067615;28;20064;-69
2022/01/09 00:33:45;;;;;;;3.33;1.73;;;;;;;;;;5059866;28;20136;-68
2022/01/09 00:36:13;;;;;;;2.65;1.73;;;;;;;;;;5059472;28;20475;-69
2022/01/09 00:38:42;;;;;;;4.95;1.70;;;;;;;;;;5056779;28;20053;-68
2022/01/09 00:41:11;;;;;;;3.33;1.52;;;;;;;;;;5050234;28;20057;-68
2022/01/09 00:43:40;;;;;;;4.32;2.05;;;;;;;;;;5065439;28;20090;-69
2022/01/09 00:46:09;;;;;;;4.80;2.28;;;;;;;;;;5057537;28;20058;-68
2022/01/09 00:48:37;;;;;;;2.35;1.35;;;;;;;;;;5050187;28;20452;-68
2022/01/09 00:51:08;;;;;;;3.35;1.98;;;;;;;;;;5051580;28;20060;-70
2022/01/09 00:53:37;;;;;;;4.70;1.58;;;;;;;;;;5060196;28;20471;-68
2022/01/09 00:56:09;;;;;;;1.90;1.48;;;;;;;;;;5056763;28;20049;-68
2022/01/09 00:58:38;;;;;;;4.82;1.60;;;;;;;;;;5064949;28;20076;-68
2022/01/09 01:01:07;;;;;;;2.78;1.50;;;;;;;;;;5060330;28;20041;-68
2022/01/09 01:03:35;;;;;;;3.53;1.38;;;;;;;;;;5056104;28;20094;-68
2022/01/09 01:06:07;;;;;;;4.18;1.83;;;;;;;;;;5065959;28;20125;-68
2022/01/09 01:08:35;;;;;;;2.17;1.50;;;;;;;;;;5058396;28;20041;-68
2022/01/09 01:11:06;;;;;;;3.40;1.60;;;;;;;;;;5056478;28;20572;-68
2022/01/09 01:13:34;;;;;;;4.25;1.67;;;;;;;;;;5058255;28;20144;-68
2022/01/09 01:16:07;;;;;;;2.40;1.40;;;;;;;;;;5062803;28;20132;-67
2022/01/09 01:18:35;;;;;;;4.60;1.80;;;;;;;;;;5053778;28;20497;-68
2022/01/09 01:21:06;;;;;;;3.72;1.52;;;;;;;;;;5050494;28;20358;-68
2022/01/09 01:23:35;;;;;;;3.78;1.50;;;;;;;;;;5051237;28;20063;-67
2022/01/09 01:26:06;;;;;;;2.15;1.38;;;;;;;;;;5056248;28;20131;-67
2022/01/09 01:28:34;;;;;;;2.95;1.75;;;;;;;;;;5053867;28;20456;-68
2022/01/09 01:31:05;;;;;;;3.30;1.40;;;;;;;;;;5041437;28;20132;-68
2022/01/09 01:33:34;;;;;;;3.20;2.20;;;;;;;;;;5031344;28;20448;-67
2022/01/09 01:36:05;;;;;;;2.55;1.50;;;;;;;;;;5047504;28;20048;-68
2022/01/09 01:38:34;;;;;;;2.72;1.40;;;;;;;;;;5042654;28;20407;-67
2022/01/09 01:41:04;;;;;;;2.80;1.40;;;;;;;;;;5039586;28;20111;-68
2022/01/09 01:43:32;;;;;;;3.55;1.83;;;;;;;;;;5030365;28;20064;-68
2022/01/09 01:46:04;;;;;;;3.92;1.90;;;;;;;;;;5043064;28;20487;-68
2022/01/09 01:48:34;;;;;;;3.70;1.55;;;;;;;;;;5063324;28;20045;-68
2022/01/09 01:51:05;;;;;;;5.30;2.13;;;;;;;;;;5040342;28;20087;-70
2022/01/09 01:53:47;;;;;;;4.60;1.65;;;;;;;;;;4025970;28;10002082;-68
2022/01/09 01:56:19;;;;;;;4.35;1.98;;;;;;;;;;1742873;28;10002041;-68
2022/01/09 01:58:48;;;;;;;3.47;1.80;;;;;;;;;;5048211;28;20077;-69
2022/01/09 02:01:16;;;;;;;3.03;1.58;;;;;;;;;;5035262;28;20068;-69
2022/01/09 02:03:46;;;;;;;6.18;1.50;;;;;;;;;;5041921;28;20077;-69
2022/01/09 02:06:15;;;;;;;3.47;1.70;;;;;;;;;;5044837;28;20087;-68
2022/01/09 02:08:43;;;;;;;2.30;1.30;;;;;;;;;;5045030;28;20068;-68
2022/01/09 02:11:12;;;;;;;3.95;1.52;;;;;;;;;;5034424;28;20049;-68
2022/01/09 02:13:44;;;;;;;3.47;1.60;;;;;;;;;;5030967;28;20140;-69
2022/01/09 02:16:17;;;;;;;3.10;1.55;;;;;;;;;;5040748;28;20069;-70
2022/01/09 02:18:47;;;;;;;3.25;1.65;;;;;;;;;;5038101;28;20136;-68
2022/01/09 02:21:16;;;;;;;4.80;1.88;;;;;;;;;;5042266;28;20532;-69
2022/01/09 02:23:45;;;;;;;2.28;1.60;;;;;;;;;;5042792;28;20566;-69
2022/01/09 02:26:17;;;;;;;5.35;1.30;;;;;;;;;;5045710;28;20103;-68
2022/01/09 02:28:45;;;;;;;2.08;1.30;;;;;;;;;;5048660;28;20124;-68
2022/01/09 02:31:14;;;;;;;3.83;1.33;;;;;;;;;;5057651;28;20123;-69
2022/01/09 02:33:42;;;;;;;4.55;1.65;;;;;;;;;;5051713;28;20145;-68
2022/01/09 02:36:11;;;;;;;2.60;1.55;;;;;;;;;;5049094;28;20567;-68
2022/01/09 02:38:40;;;;;;;2.13;1.42;;;;;;;;;;5048359;28;20488;-69
2022/01/09 02:41:09;;;;;;;2.58;1.30;;;;;;;;;;5053609;28;20045;-69
2022/01/09 02:43:37;;;;;;;2.22;1.27;;;;;;;;;;5055582;28;20048;-69
2022/01/09 02:46:15;;;;;;;1.55;1.10;;;;;;;;;;5046996;28;20123;-69
2022/01/09 02:48:45;;;;;;;2.22;1.15;;;;;;;;;;5055760;28;20119;-69
2022/01/09 02:51:15;;;;;;;1.92;1.00;;;;;;;;;;5052925;28;20075;-69
2022/01/09 02:53:48;;;;;;;2.38;1.15;;;;;;;;;;5050265;28;20140;-68
2022/01/09 02:56:17;;;;;;;1.65;1.00;;;;;;;;;;5057324;28;20131;-69
2022/01/09 02:58:45;;;;;;;2.35;1.08;;;;;;;;;;5052740;28;20059;-68
2022/01/09 03:01:13;;;;;;;1.20;0.90;;;;;;;;;;5041751;28;20136;-69
2022/01/09 03:03:42;;;;;;;2.42;1.13;;;;;;;;;;5041534;28;20128;-68
2022/01/09 03:06:10;;;;;;;2.13;1.15;;;;;;;;;;5042879;28;20060;-68
2022/01/09 03:08:39;;;;;;;1.08;0.57;;;;;;;;;;5057371;28;20477;-68
2022/01/09 03:11:08;;;;;;;0.80;0.60;;;;;;;;;;5040444;28;20520;-72
2022/01/09 03:13:37;;;;;;;0.73;0.47;;;;;;;;;;5033981;28;20577;-68
2022/01/09 03:16:08;;;;;;;0.65;0.52;;;;;;;;;;5060740;28;20140;-68
2022/01/09 03:18:36;;;;;;;1.58;0.60;;;;;;;;;;5048212;28;20074;-68
2022/01/09 03:21:07;;;;;;;1.63;0.60;;;;;;;;;;5056740;28;20067;-69
2022/01/09 03:23:35;;;;;;;0.63;0.50;;;;;;;;;;5062698;28;20370;-68
2022/01/09 03:26:09;;;;;;;0.52;0.40;;;;;;;;;;5046791;28;20072;-68
2022/01/09 03:28:38;;;;;;;1.05;0.60;;;;;;;;;;5059132;28;20554;-67
2022/01/09 03:31:07;;;;;;;1.88;0.70;;;;;;;;;;5070892;28;20048;-69
2022/01/09 03:33:35;;;;;;;0.73;0.50;;;;;;;;;;5061998;28;20131;-68
2022/01/09 03:36:08;;;;;;;1.05;0.50;;;;;;;;;;3725387;28;10023592;-69
2022/01/09 03:38:36;;;;;;;0.60;0.50;;;;;;;;;;1734277;28;10001990;-69
2022/01/09 03:41:07;;;;;;;1.67;0.50;;;;;;;;;;5044038;28;20041;-69
2022/01/09 03:43:36;;;;;;;0.98;0.40;;;;;;;;;;5041850;28;20111;-68
2022/01/09 03:46:09;;;;;;;3.13;0.70;;;;;;;;;;5052526;28;20045;-67
2022/01/09 03:48:37;;;;;;;0.70;0.47;;;;;;;;;;5053244;28;20072;-67
2022/01/09 03:51:11;;;;;;;1.20;0.65;;;;;;;;;;5051702;28;20036;-68
2022/01/09 03:53:40;;;;;;;0.55;0.50;;;;;;;;;;5056115;28;20122;-69
2022/01/09 03:56:08;;;;;;;0.40;0.40;;;;;;;;;;5065964;28;20111;-69
2022/01/09 03:58:36;;;;;;;0.80;0.50;;;;;;;;;;5058215;28;20059;-68
2022/01/09 04:01:09;;;;;;;0.75;0.55;;;;;;;;;;5052523;28;20077;-68
2022/01/09 04:03:38;;;;;;;1.40;0.60;;;;;;;;;;5051225;28;20132;-70
2022/01/09 04:06:09;;;;;;;0.50;0.50;;;;;;;;;;5054903;28;20476;-68
2022/01/09 04:08:38;;;;;;;1.00;0.50;;;;;;;;;;5055723;28;20040;-69
2022/01/09 04:11:07;;;;;;;0.30;0.30;;;;;;;;;;5063164;28;20129;-69
2022/01/09 04:13:35;;;;;;;0.75;0.50;;;;;;;;;;5049748;28;20050;-70
2022/01/09 04:16:07;;;;;;;1.13;0.70;;;;;;;;;;5072417;28;20466;-69
2022/01/09 04:18:36;;;;;;;0.35;0.35;;;;;;;;;;5068455;28;20040;-68
2022/01/09 04:21:07;;;;;;;0.95;0.55;;;;;;;;;;5059950;28;20461;-68
2022/01/09 04:23:36;;;;;;;0.30;0.30;;;;;;;;;;5051961;28;20124;-68
2022/01/09 04:26:07;;;;;;;0.95;0.30;;;;;;;;;;5052746;28;20049;-68
2022/01/09 04:28:35;;;;;;;3.33;0.47;;;;;;;;;;5051533;28;20123;-68
2022/01/09 04:31:06;;;;;;;0.82;0.40;;;;;;;;;;5061897;28;20419;-68
2022/01/09 04:33:37;;;;;;;0.40;0.40;;;;;;;;;;1331379;28;10022438;-68
2022/01/09 04:36:08;;;;;;;0.50;0.47;;;;;;;;;;4008994;28;10001411;-68
2022/01/09 04:38:36;;;;;;;0.45;0.40;;;;;;;;;;5067761;28;20131;-68
2022/01/09 04:41:07;;;;;;;1.05;0.45;;;;;;;;;;5056598;28;20148;-68
2022/01/09 04:43:36;;;;;;;0.75;0.40;;;;;;;;;;5051893;28;20590;-69
2022/01/09 04:46:07;;;;;;;1.77;0.47;;;;;;;;;;5064998;28;20045;-68
2022/01/09 04:48:36;;;;;;;0.93;0.50;;;;;;;;;;5051887;28;20588;-68
2022/01/09 04:51:10;;;;;;;1.00;0.40;;;;;;;;;;5056404;28;20057;-68
2022/01/09 04:53:39;;;;;;;0.30;0.30;;;;;;;;;;5050625;28;20132;-68
2022/01/09 04:56:07;;;;;;;3.70;0.50;;;;;;;;;;5062649;28;20576;-68
2022/01/09 04:58:35;;;;;;;1.23;0.40;;;;;;;;;;5053540;28;20296;-69
2022/01/09 05:01:06;;;;;;;1.00;0.30;;;;;;;;;;5054576;28;20140;-68
2022/01/09 05:03:36;;;;;;;0.63;0.40;;;;;;;;;;5050621;28;20045;-68
2022/01/09 05:06:08;;;;;;;0.30;0.30;;;;;;;;;;5052468;28;20135;-68
2022/01/09 05:08:36;;;;;;;2.10;0.38;;;;;;;;;;5051241;28;20496;-69
2022/01/09 05:11:07;;;;;;;5.13;0.60;;;;;;;;;;5051025;28;20067;-68
2022/01/09 05:13:36;;;;;;;0.40;0.30;;;;;;;;;;5044652;28;20522;-70
2022/01/09 05:16:07;;;;;;;0.82;0.47;;;;;;;;;;5060167;28;20136;-69
2022/01/09 05:18:50;;;;;;;0.50;0.30;;;;;;;;;;5063524;28;20119;-68
2022/01/09 05:21:18;;;;;;;0.70;0.38;;;;;;;;;;5065305;28;20131;-68
2022/01/09 05:23:47;;;;;;;0.68;0.50;;;;;;;;;;5049953;28;20047;-69
2022/01/09 05:26:15;;;;;;;0.38;0.38;;;;;;;;;;5060541;28;20047;-69
2022/01/09 05:28:44;;;;;;;0.70;0.50;;;;;;;;;;5058866;28;20506;-68
2022/01/09 05:31:12;;;;;;;0.40;0.40;;;;;;;;;;5055807;28;20056;-69
2022/01/09 05:33:41;;;;;;;0.22;0.22;;;;;;;;;;5060731;28;20431;-69
2022/01/09 05:36:10;;;;;;;1.95;0.30;;;;;;;;;;5054983;28;20057;-69
2022/01/09 05:38:38;;;;;;;0.60;0.30;;;;;;;;;;5059455;28;20128;-68
2022/01/09 05:41:06;;;;;;;0.45;0.20;;;;;;;;;;5053395;28;20473;-70
2022/01/09 05:43:35;;;;;;;0.22;0.20;;;;;;;;;;5058315;28;20049;-68
2022/01/09 05:46:07;;;;;;;0.57;0.20;;;;;;;;;;5069456;28;20110;-69
2022/01/09 05:48:35;;;;;;;0.40;0.17;;;;;;;;;;5063221;28;20127;-68
2022/01/09 05:51:08;;;;;;;0.35;0.35;;;;;;;;;;5049490;28;20127;-69
2022/01/09 05:53:36;;;;;;;0.30;0.30;;;;;;;;;;5060797;28;20132;-69
2022/01/09 05:56:07;;;;;;;0.20;0.20;;;;;;;;;;5056418;28;20139;-69
2022/01/09 05:58:36;;;;;;;0.40;0.40;;;;;;;;;;5051831;28;20057;-69
2022/01/09 06:01:07;;;;;;;0.25;0.25;;;;;;;;;;5057217;28;20152;-71
2022/01/09 06:03:35;;;;;;;0.45;0.30;;;;;;;;;;5049975;28;20464;-68
2022/01/09 06:06:08;;;;;;;0.47;0.25;;;;;;;;;;5057650;28;20493;-68
2022/01/09 06:08:37;;;;;;;0.50;0.30;;;;;;;;;;5057616;28;20091;-68
2022/01/09 06:11:08;;;;;;;0.20;0.20;;;;;;;;;;5061801;28;20136;-68
2022/01/09 06:13:36;;;;;;;0.40;0.20;;;;;;;;;;5044243;28;21303;-69
2022/01/09 06:16:08;;;;;;;1.02;0.30;;;;;;;;;;5055153;28;20555;-68
2022/01/09 06:18:36;;;;;;;0.20;0.20;;;;;;;;;;5063978;28;20124;-69
2022/01/09 06:21:09;;;;;;;0.40;0.20;;;;;;;;;;5063654;28;20132;-69
2022/01/09 06:23:37;;;;;;;0.20;0.20;;;;;;;;;;5056582;28;20140;-69
2022/01/09 06:26:05;;;;;;;0.20;0.20;;;;;;;;;;5056615;28;20137;-73
2022/01/09 06:28:34;;;;;;;0.10;0.10;;;;;;;;;;5062861;28;20102;-69
2022/01/09 06:31:05;;;;;;;0.35;0.20;;;;;;;;;;5049237;28;20129;-69
2022/01/09 06:33:34;;;;;;;0.20;0.20;;;;;;;;;;5057043;28;21578;-69
2022/01/09 06:36:04;;;;;;;1.75;0.20;;;;;;;;;;5058350;28;20207;-70
2022/01/09 06:38:37;;;;;;;0.20;0.20;;;;;;;;;;5048617;28;20142;-70
2022/01/09 06:41:09;;;;;;;0.10;0.10;;;;;;;;;;5038630;28;20583;-69
2022/01/09 06:43:37;;;;;;;0.20;0.20;;;;;;;;;;5061625;28;20076;-70
2022/01/09 06:46:08;;;;;;;0.65;0.30;;;;;;;;;;5053783;28;20059;-69
2022/01/09 06:48:36;;;;;;;0.20;0.20;;;;;;;;;;5036702;28;20076;-70
2022/01/09 06:51:10;;;;;;;0.17;0.17;;;;;;;;;;5057315;28;20053;-69
2022/01/09 06:53:39;;;;;;;0.15;0.15;;;;;;;;;;5052908;28;20040;-70
2022/01/09 06:56:08;;;;;;;0.17;0.17;;;;;;;;;;5065706;28;20090;-69
2022/01/09 06:58:37;;;;;;;0.43;0.20;;;;;;;;;;5061326;28;20057;-69
2022/01/09 07:01:08;;;;;;;0.10;0.10;;;;;;;;;;5044865;28;20061;-69
2022/01/09 07:03:37;;;;;;;0.20;0.20;;;;;;;;;;5052859;28;20049;-69
2022/01/09 07:06:08;;;;;;;0.20;0.20;;;;;;;;;;5062696;28;20060;-69
2022/01/09 07:08:36;;;;;;;0.22;0.20;;;;;;;;;;5049922;28;20536;-69
2022/01/09 07:11:09;;;;;;;0.10;0.10;;;;;;;;;;5051114;28;20577;-72
2022/01/09 07:13:37;;;;;;;0.88;0.20;;;;;;;;;;5055723;28;20049;-69
2022/01/09 07:16:08;;;;;;;0.20;0.20;;;;;;;;;;5046413;28;20484;-69
2022/01/09 07:18:37;;;;;;;0.17;0.17;;;;;;;;;;5056672;28;20048;-70
2022/01/09 07:21:08;;;;;;;0.25;0.17;;;;;;;;;;5048551;28;20060;-70
2022/01/09 07:23:36;;;;;;;0.20;0.20;;;;;;;;;;5056857;28;20147;-70
2022/01/09 07:26:09;;;;;;;0.20;0.20;;;;;;;;;;5032400;28;20077;-69
2022/01/09 07:28:37;;;;;;;0.10;0.10;;;;;;;;;;5044483;28;20144;-70
2022/01/09 07:31:08;;;;;;;0.20;0.20;;;;;;;;;;5046132;28;20051;-70
2022/01/09 07:33:37;;;;;;;0.20;0.20;;;;;;;;;;5052132;28;20045;-69
2022/01/09 07:36:08;;;;;;;0.10;0.10;;;;;;;;;;5044538;28;20063;-70
2022/01/09 07:38:36;;;;;;;0.20;0.20;;;;;;;;;;5056199;28;20123;-69
2022/01/09 07:41:12;;;;;;;0.32;0.28;;;;;;;;;;5050713;28;20514;-69
2022/01/09 07:43:40;;;;;;;0.20;0.20;;;;;;;;;;5058192;28;20087;-69
2022/01/09 07:46:09;;;;;;;0.30;0.28;;;;;;;;;;5056139;28;20461;-71
2022/01/09 07:48:37;;;;;;;0.20;0.20;;;;;;;;;;5048221;28;20057;-69
2022/01/09 07:51:08;;;;;;;0.28;0.20;;;;;;;;;;5048784;28;20049;-71
2022/01/09 07:53:36;;;;;;;0.20;0.20;;;;;;;;;;5055699;28;20059;-68
2022/01/09 07:56:07;;;;;;;0.20;0.20;;;;;;;;;;5046147;28;20136;-70
2022/01/09 07:58:37;;;;;;;0.20;0.20;;;;;;;;;;5050721;28;20049;-71
2022/01/09 08:01:08;;;;;;;0.43;0.20;;;;;;;;;;5065558;28;20471;-69
2022/01/09 08:03:37;;;;;;;0.17;0.17;;;;;;;;;;5049648;28;20049;-69
2022/01/09 08:06:08;;;;;;;2.08;0.22;;;;;;;;;;5064798;28;20041;-71
2022/01/09 08:08:36;;;;;;;0.20;0.20;;;;;;;;;;5054413;28;20068;-68
2022/01/09 08:11:08;;;;;;;2.83;0.20;;;;;;;;;;5059151;28;20061;-71
2022/01/09 08:13:37;;;;;;;0.20;0.20;;;;;;;;;;5050781;28;20473;-68
2022/01/09 08:16:08;;;;;;;0.25;0.25;;;;;;;;;;5060083;28;20068;-68
2022/01/09 08:18:37;;;;;;;0.80;0.30;;;;;;;;;;5048471;28;20052;-67
2022/01/09 08:21:08;;;;;;;0.32;0.20;;;;;;;;;;5051792;28;20056;-70
2022/01/09 08:23:37;;;;;;;0.25;0.25;;;;;;;;;;5057782;28;20057;-68
2022/01/09 08:26:08;;;;;;;0.20;0.20;;;;;;;;;;5056873;28;20098;-68
2022/01/09 08:28:49;;;;;;;1.50;0.35;;;;;;;;;;4302471;28;10001298;-68
2022/01/09 08:31:17;;;;;;;0.20;0.20;;;;;;;;;;1729837;28;10002287;-68
2022/01/09 08:34:05;;;;;;;0.26;0.26;;;;;;;;;;3022597;28;10003131;-69
2022/01/09 08:36:34;;;;;;;0.20;0.20;;;;;;;;;;3303757;28;10001626;-68
2022/01/09 08:39:04;;;;;;;0.55;0.20;;;;;;;;;;5054885;28;20057;-69
2022/01/09 08:41:32;;;;;;;0.10;0.10;;;;;;;;;;5046717;28;20457;-70
2022/01/09 08:44:02;;;;;;;0.20;0.20;;;;;;;;;;5050079;28;20460;-69
2022/01/09 08:46:30;;;;;;;0.45;0.40;;;;;;;;;;5053783;28;20473;-69
2022/01/09 08:48:59;;;;;;;0.35;0.30;;;;;;;;;;5052505;28;20079;-68
2022/01/09 08:51:28;;;;;;;0.30;0.30;;;;;;;;;;5057845;28;20508;-69
2022/01/09 08:53:56;;;;;;;0.20;0.20;;;;;;;;;;5047991;28;20136;-69
2022/01/09 08:56:25;;;;;;;0.30;0.30;;;;;;;;;;5051865;28;20119;-69
2022/01/09 08:58:54;;;;;;;0.47;0.20;;;;;;;;;;5053079;28;20088;-69
2022/01/09 09:01:44;;;;;;;0.65;0.30;;;;;;;;;;5055798;28;20049;-70
2022/01/09 09:04:13;;;;;;;0.40;0.30;;;;;;;;;;5056407;28;20087;-70
2022/01/09 09:06:42;;;;;;;0.73;0.30;;;;;;;;;;5062743;28;20109;-69
2022/01/09 09:09:11;;;;;;;0.22;0.22;;;;;;;;;;5054797;28;20060;-71
2022/01/09 09:11:40;;;;;;;2.45;0.30;;;;;;;;;;5046767;28;20048;-70
2022/01/09 09:14:08;;;;;;;2.63;0.63;;;;;;;;;;5049531;28;20111;-69
2022/01/09 09:16:37;;;;;;;0.20;0.20;;;;;;;;;;5061539;28;20446;-70
2022/01/09 09:19:07;;;;;;;0.50;0.22;;;;;;;;;;5047868;28;20488;-69
2022/01/09 09:21:36;;;;;;;0.85;0.40;;;;;;;;;;5045254;28;20118;-70
2022/01/09 09:24:04;;;;;;;0.40;0.38;;;;;;;;;;5048708;28;20053;-69
2022/01/09 09:26:32;;;;;;;1.13;0.30;;;;;;;;;;5048209;28;20127;-71
2022/01/09 09:29:01;;;;;;;0.30;0.30;;;;;;;;;;5050830;28;20415;-71
2022/01/09 09:31:29;;;;;;;2.38;0.40;;;;;;;;;;5040874;28;20137;-70
2022/01/09 09:33:57;;;;;;;0.52;0.35;;;;;;;;;;5047872;28;20136;-70
2022/01/09 09:36:27;;;;;;;0.52;0.30;;;;;;;;;;5047307;28;20052;-69
2022/01/09 09:38:56;;;;;;;0.50;0.40;;;;;;;;;;5043098;28;20144;-69
2022/01/09 09:41:25;;;;;;;0.30;0.30;;;;;;;;;;5045984;28;20067;-69
2022/01/09 09:43:54;;;;;;;0.30;0.30;;;;;;;;;;5047918;28;20045;-69
2022/01/09 09:46:22;;;;;;;0.25;0.20;;;;;;;;;;5057526;28;20052;-69
2022/01/09 09:48:51;;;;;;;0.68;0.30;;;;;;;;;;5051627;28;20131;-71
2022/01/09 09:51:20;;;;;;;0.55;0.40;;;;;;;;;;5047588;28;20132;-69
2022/01/09 09:53:49;;;;;;;2.08;0.45;;;;;;;;;;5045389;28;20469;-68
2022/01/09 09:56:18;;;;;;;0.30;0.30;;;;;;;;;;5044022;28;20088;-68
2022/01/09 09:58:49;;;;;;;0.60;0.47;;;;;;;;;;5036601;28;20053;-68
2022/01/09 10:01:23;;;;;;;1.45;0.60;;;;;;;;;;5044443;28;20080;-68
2022/01/09 10:03:52;;;;;;;;;;;;;;;;;;5040225;28;20124;-68
2022/01/09 10:06:34;;;;;;;0.70;0.38;;;;;;;;;;5040544;28;19959;-68
2022/01/09 10:09:07;;;;;;;0.30;0.30;;;;;;;;;;5052332;28;20410;-69
2022/01/09 10:11:45;;;;;;;0.50;0.30;;;;;;;;;;5049867;28;20075;-72
2022/01/09 10:14:15;;;;;;;0.35;0.35;;;;;;;;;;5043543;28;20110;-67
2022/01/09 10:17:04;;;;;;;0.43;0.40;;;;;;;;;;5054028;28;20077;-69
2022/01/09 10:19:41;;;;;;;0.88;0.50;;;;;;;;;;5049108;28;20057;-67
2022/01/09 10:22:22;;;;;;;0.38;0.30;;;;;;;;;;5047079;28;20136;-68
2022/01/09 10:24:52;;;;;;;0.57;0.40;;;;;;;;;;5060054;28;20048;-68
2022/01/09 10:27:31;;;;;;;2.13;0.40;;;;;;;;;;5049682;28;20106;-68
2022/01/09 10:30:00;;;;;;;1.52;0.50;;;;;;;;;;5053502;28;20075;-67
2022/01/09 10:32:29;;;;;;;1.40;0.50;;;;;;;;;;5049540;28;20048;-68
2022/01/09 10:35:08;;;;;;;4.32;0.70;;;;;;;;;;5052238;28;20407;-69
2022/01/09 10:37:36;;;;;;;0.55;0.40;;;;;;;;;;5065791;28;20092;-68
2022/01/09 10:40:08;;;;;;;0.77;0.30;;;;;;;;;;5038638;28;20112;-68
2022/01/09 10:42:37;;;;;;;2.88;0.57;;;;;;;;;;5047967;28;20053;-70
2022/01/09 10:45:23;;;;;;;1.48;0.43;;;;;;;;;;5059171;28;20133;-69
2022/01/09 10:47:55;;;;;;;1.67;0.77;;;;;;;;;;5056463;28;20041;-68
2022/01/09 10:50:25;;;;;;;0.50;0.32;;;;;;;;;;5018852;28;20053;-69
2022/01/09 10:53:18;;;;;;;0.38;0.38;;;;;;;;;;1546818;28;10022734;-68
2022/01/09 10:55:49;;;;;;;0.63;0.45;;;;;;;;;;4010729;28;10001173;-68
2022/01/09 10:58:22;;;;;;;1.38;0.52;;;;;;;;;;5055890;28;20044;-69
2022/01/09 11:01:07;;;;;;;1.83;0.95;;;;;;;;;;5056829;28;20099;-68
2022/01/09 11:03:36;;;;;;;0.80;0.50;;;;;;;;;;5052436;28;20496;-70
2022/01/09 11:06:09;;;;;;;0.40;0.40;;;;;;;;;;5059143;28;20049;-69
2022/01/09 11:08:38;;;;;;;0.95;0.50;;;;;;;;;;5059422;28;20562;-68
2022/01/09 11:11:16;;;;;;;2.15;0.50;;;;;;;;;;5050623;28;20164;-68
2022/01/09 11:13:46;;;;;;;1.17;0.50;;;;;;;;;;5055723;28;20490;-68
2022/01/09 11:19:01;;;;;;;0.40;0.40;;;;;;;;;;5049472;28;20053;-68
2022/01/09 11:21:29;;;;;;;2.67;0.70;;;;;;;;;;5054266;28;20494;-68
2022/01/09 11:24:07;;;;;;;2.83;0.50;;;;;;;;;;5049615;28;20048;-70
2022/01/09 11:26:41;;;;;;;1.60;0.70;;;;;;;;;;5048392;28;20052;-68
2022/01/09 11:29:11;;;;;;;1.95;0.60;;;;;;;;;;5044167;28;20095;-69
2022/01/09 11:31:51;;;;;;;2.25;0.63;;;;;;;;;;5059948;28;20393;-68
2022/01/09 11:34:27;;;;;;;2.58;0.50;;;;;;;;;;5061333;28;20052;-69
2022/01/09 11:37:00;;;;;;;2.35;0.52;;;;;;;;;;5053150;28;20135;-68
2022/01/09 11:39:33;;;;;;;0.85;0.70;;;;;;;;;;5050238;28;20049;-69
2022/01/09 11:42:11;;;;;;;4.50;0.68;;;;;;;;;;5051875;28;20394;-69
2022/01/09 11:44:50;;;;;;;1.27;0.40;;;;;;;;;;5064223;28;20044;-71
2022/01/09 11:47:19;;;;;;;1.25;0.63;;;;;;;;;;5053172;28;20044;-68
2022/01/09 11:50:07;;;;;;;2.65;0.45;;;;;;;;;;5054725;28;20049;-69
2022/01/09 11:52:56;;;;;;;1.05;0.70;;;;;;;;;;5007958;28;20061;-69
2022/01/09 11:55:38;;;;;;;0.55;0.40;;;;;;;;;;334979;28;10022681;-69
2022/01/09 11:58:11;;;;;;;0.30;0.30;;;;;;;;;;5052114;28;20532;-69
2022/01/09 12:00:41;;;;;;;4.22;0.60;;;;;;;;;;5049022;28;20054;-71
2022/01/09 12:03:30;;;;;;;0.77;0.50;;;;;;;;;;5047119;28;20064;-69
2022/01/09 12:06:05;;;;;;;3.00;0.47;;;;;;;;;;5045715;28;20047;-68
2022/01/09 12:08:52;;;;;;;2.70;0.50;;;;;;;;;;5053085;28;20122;-68
2022/01/09 12:11:22;;;;;;;1.00;0.60;;;;;;;;;;5050095;28;20048;-69
2022/01/09 12:13:54;;;;;;;3.33;0.73;;;;;;;;;;5048804;28;20084;-69
2022/01/09 12:16:42;;;;;;;0.77;0.50;;;;;;;;;;5054690;28;20797;-69
2022/01/09 12:19:11;;;;;;;3.08;0.70;;;;;;;;;;5054786;28;20123;-71
2022/01/09 12:21:49;;;;;;;0.40;0.40;;;;;;;;;;5062311;28;20044;-70
2022/01/09 12:24:36;;;;;;;2.70;0.70;;;;;;;;;;5057507;28;20052;-69
2022/01/09 12:27:19;;;;;;;2.33;0.32;;;;;;;;;;5040177;28;20188;-69
2022/01/09 12:29:49;;;;;;;0.63;0.50;;;;;;;;;;5041343;28;20128;-70
2022/01/09 12:32:36;;;;;;;4.05;0.70;;;;;;;;;;5043040;28;20504;-69
2022/01/09 12:35:16;;;;;;;2.28;0.70;;;;;;;;;;5056823;28;20065;-71
2022/01/09 12:37:47;;;;;;;0.38;0.30;;;;;;;;;;5047166;28;20096;-69
2022/01/09 12:40:16;;;;;;;0.63;0.50;;;;;;;;;;5058912;28;20099;-69
2022/01/09 12:42:47;;;;;;;1.70;0.57;;;;;;;;;;5041340;28;20156;-71
2022/01/09 12:45:22;;;;;;;1.15;0.70;;;;;;;;;;5066534;28;20167;-69
2022/01/09 12:47:50;;;;;;;2.28;0.50;;;;;;;;;;5043826;28;20428;-70
2022/01/09 12:50:26;;;;;;;1.35;0.63;;;;;;;;;;5052285;28;20124;-68
2022/01/09 12:53:10;;;;;;;7.60;0.75;;;;;;;;;;5051836;28;20059;-72
2022/01/09 12:55:53;;;;;;;2.28;0.80;;;;;;;;;;5031835;28;20091;-70
2022/01/09 12:58:24;;;;;;;4.47;1.52;;;;;;;;;;5037468;28;20055;-71
2022/01/09 13:00:54;;;;;;;5.82;0.73;;;;;;;;;;5050945;28;20048;-69
2022/01/09 13:03:25;;;;;;;2.97;0.63;;;;;;;;;;5048425;28;20048;-69
2022/01/09 13:05:55;;;;;;;4.55;0.60;;;;;;;;;;5053113;28;20143;-69
2022/01/09 13:08:24;;;;;;;2.53;0.47;;;;;;;;;;5036441;28;20060;-70
2022/01/09 13:11:00;;;;;;;4.40;0.85;;;;;;;;;;5054805;28;20047;-68
2022/01/09 13:13:30;;;;;;;4.82;0.50;;;;;;;;;;5041692;28;20051;-69
2022/01/09 13:16:09;;;;;;;3.85;0.60;;;;;;;;;;5041689;28;20056;-69
2022/01/09 13:18:39;;;;;;;1.77;0.52;;;;;;;;;;5044898;28;20046;-70
2022/01/09 13:21:12;;;;;;;2.15;0.80;;;;;;;;;;5047005;28;20067;-69
2022/01/09 13:23:54;;;;;;;3.08;0.90;;;;;;;;;;5056184;28;20229;-71
2022/01/09 13:26:23;;;;;;;4.45;0.93;;;;;;;;;;5059364;28;20045;-69
2022/01/09 13:28:52;;;;;;;1.83;0.70;;;;;;;;;;5047082;28;20655;-69
2022/01/09 13:31:23;;;;;;;3.95;0.88;;;;;;;;;;5055500;28;20061;-70
2022/01/09 13:33:52;;;;;;;1.35;0.95;;;;;;;;;;5033899;28;20396;-69
2022/01/09 13:36:32;;;;;;;3.45;0.40;;;;;;;;;;5056818;28;20048;-69
2022/01/09 13:39:02;;;;;;;1.27;0.50;;;;;;;;;;5058079;28;20362;-69
2022/01/09 13:41:31;;;;;;;3.45;0.50;;;;;;;;;;5042314;28;20074;-69
2022/01/09 13:44:01;;;;;;;1.45;0.60;;;;;;;;;;5037619;28;20578;-68
2022/01/09 13:46:31;;;;;;;2.65;0.77;;;;;;;;;;5057993;28;20515;-68
2022/01/09 13:48:59;;;;;;;1.42;0.52;;;;;;;;;;5052043;28;20060;-68
2022/01/09 13:51:44;;;;;;;2.75;0.50;;;;;;;;;;1140593;28;10023880;-69
2022/01/09 13:54:14;;;;;;;5.22;0.98;;;;;;;;;;4699341;28;10001284;-69
2022/01/09 13:56:44;;;;;;;1.48;0.70;;;;;;;;;;5052053;28;20388;-68
2022/01/09 13:59:13;;;;;;;4.32;0.70;;;;;;;;;;5029932;28;20059;-68
2022/01/09 14:01:45;;;;;;;5.75;1.88;;;;;;;;;;5042939;28;20064;-69
2022/01/09 14:04:15;;;;;;;0.88;0.60;;;;;;;;;;5057010;28;20511;-68
2022/01/09 14:06:44;;;;;;;5.68;0.88;;;;;;;;;;5057808;28;20059;-68
2022/01/09 14:09:14;;;;;;;2.40;0.75;;;;;;;;;;5049775;28;20497;-69
2022/01/09 14:11:43;;;;;;;0.52;0.52;;;;;;;;;;5057196;28;20476;-69
2022/01/09 14:14:11;;;;;;;1.05;0.55;;;;;;;;;;5058169;28;20620;-70
2022/01/09 14:16:42;;;;;;;2.42;0.70;;;;;;;;;;5051961;28;20264;-68
2022/01/09 14:19:13;;;;;;;0.95;0.40;;;;;;;;;;5049307;28;20133;-72
2022/01/09 14:21:52;;;;;;;3.63;0.77;;;;;;;;;;5049746;28;20057;-69
2022/01/09 14:24:21;;;;;;;1.35;0.50;;;;;;;;;;5045836;28;20056;-68
2022/01/09 14:26:57;;;;;;;4.25;0.77;;;;;;;;;;5059397;28;20777;-68
2022/01/09 14:29:36;;;;;;;2.17;0.60;;;;;;;;;;5049645;28;20048;-68
2022/01/09 14:32:05;;;;;;;6.90;0.60;;;;;;;;;;5053809;28;20052;-69
2022/01/09 14:34:43;;;;;;;3.38;1.08;;;;;;;;;;5054696;28;20037;-68
2022/01/09 14:37:13;;;;;;;2.03;0.63;;;;;;;;;;5048721;28;20057;-73
2022/01/09 14:39:41;;;;;;;4.85;0.60;;;;;;;;;;5059307;28;20052;-71
2022/01/09 14:42:10;;;;;;;2.28;1.00;;;;;;;;;;5061175;28;20041;-69
2022/01/09 14:44:39;;;;;;;2.30;0.60;;;;;;;;;;5051313;28;20164;-69
2022/01/09 14:47:08;;;;;;;4.22;0.80;;;;;;;;;;5054944;28;20052;-71
2022/01/09 14:49:37;;;;;;;1.25;0.52;;;;;;;;;;5058231;28;20135;-69
2022/01/09 14:52:07;;;;;;;1.65;0.50;;;;;;;;;;5048927;28;20052;-69
2022/01/09 14:54:36;;;;;;;3.33;0.70;;;;;;;;;;5061190;28;20049;-69
2022/01/09 14:57:06;;;;;;;3.03;0.68;;;;;;;;;;5055675;28;20128;-69
2022/01/09 14:59:34;;;;;;;1.77;0.80;;;;;;;;;;5051468;28;20072;-69
2022/01/09 15:02:03;;;;;;;0.88;0.47;;;;;;;;;;5051192;28;20057;-69
2022/01/09 15:04:32;;;;;;;1.10;0.60;;;;;;;;;;5052071;28;20041;-69
2022/01/09 15:07:01;;;;;;;0.52;0.50;;;;;;;;;;5040453;28;20057;-71